sensor_id;sensor_type;location;lat;lon;timestamp;pressure;altitude;pressure_sealevel;temperature;humidity
78483;BME280;67772;50.158;8.658;2023-04-03T00:00:44;101512.25;;;5.45;63.39
78483;BME280;67772;50.158;8.658;2023-04-03T00:03:10;101515.00;;;5.51;63.29
78483;BME280;67772;50.158;8.658;2023-04-03T00:05:35;101510.53;;;5.52;62.39
78483;BME280;67772;50.158;8.658;2023-04-03T00:08:00;101516.63;;;5.52;63.82
78483;BME280;67772;50.158;8.658;2023-04-03T00:10:27;101523.41;;;5.55;63.07
78483;BME280;67772;50.158;8.658;2023-04-03T00:12:52;101521.69;;;5.62;63.81
78483;BME280;67772;50.158;8.658;2023-04-03T00:15:18;101520.31;;;5.66;63.07
78483;BME280;67772;50.158;8.658;2023-04-03T00:17:43;101531.69;;;5.66;63.26
78483;BME280;67772;50.158;8.658;2023-04-03T00:20:09;101519.75;;;5.70;63.04
78483;BME280;67772;50.158;8.658;2023-04-03T00:22:34;101528.59;;;5.77;62.66
78483;BME280;67772;50.158;8.658;2023-04-03T00:24:59;101526.50;;;5.73;61.79
78483;BME280;67772;50.158;8.658;2023-04-03T00:27:25;101526.69;;;5.86;62.13
78483;BME280;67772;50.158;8.658;2023-04-03T00:29:50;101535.84;;;5.83;61.92
78483;BME280;67772;50.158;8.658;2023-04-03T00:32:15;101528.34;;;5.87;62.46
78483;BME280;67772;50.158;8.658;2023-04-03T00:34:41;101531.06;;;5.79;61.44
78483;BME280;67772;50.158;8.658;2023-04-03T00:37:06;101527.22;;;5.67;62.81
78483;BME280;67772;50.158;8.658;2023-04-03T00:39:31;101526.06;;;5.69;62.14
78483;BME280;67772;50.158;8.658;2023-04-03T00:41:57;101534.25;;;5.74;61.95
78483;BME280;67772;50.158;8.658;2023-04-03T00:47:11;101530.22;;;5.78;63.11
78483;BME280;67772;50.158;8.658;2023-04-03T00:49:38;101535.97;;;5.82;62.68
78483;BME280;67772;50.158;8.658;2023-04-03T00:52:05;101533.72;;;5.79;62.71
78483;BME280;67772;50.158;8.658;2023-04-03T00:54:33;101532.34;;;5.83;62.49
78483;BME280;67772;50.158;8.658;2023-04-03T00:57:00;101534.97;;;5.83;61.81
78483;BME280;67772;50.158;8.658;2023-04-03T00:59:30;101533.50;;;5.80;62.12
78483;BME280;67772;50.158;8.658;2023-04-03T01:01:57;101535.44;;;5.72;63.15
78483;BME280;67772;50.158;8.658;2023-04-03T01:07:02;101539.47;;;5.97;62.55
78483;BME280;67772;50.158;8.658;2023-04-03T01:09:29;101535.38;;;5.94;62.10
78483;BME280;67772;50.158;8.658;2023-04-03T01:14:44;101547.53;;;5.89;62.55
78483;BME280;67772;50.158;8.658;2023-04-03T01:17:37;101539.28;;;5.84;63.56
78483;BME280;67772;50.158;8.658;2023-04-03T01:25:42;101536.84;;;5.97;61.86
78483;BME280;67772;50.158;8.658;2023-04-03T01:28:12;101537.97;;;5.80;63.03
78483;BME280;67772;50.158;8.658;2023-04-03T01:33:24;101539.19;;;5.92;62.44
78483;BME280;67772;50.158;8.658;2023-04-03T01:35:50;101539.63;;;5.81;63.07
78483;BME280;67772;50.158;8.658;2023-04-03T01:38:15;101539.72;;;5.73;62.82
78483;BME280;67772;50.158;8.658;2023-04-03T01:40:41;101534.63;;;5.71;63.39
78483;BME280;67772;50.158;8.658;2023-04-03T01:43:06;101529.88;;;5.67;63.34
78483;BME280;67772;50.158;8.658;2023-04-03T01:45:32;101536.19;;;5.66;63.83
78483;BME280;67772;50.158;8.658;2023-04-03T01:47:57;101539.19;;;5.63;64.33
78483;BME280;67772;50.158;8.658;2023-04-03T01:50:23;101542.84;;;5.62;64.14
78483;BME280;67772;50.158;8.658;2023-04-03T01:52:48;101540.00;;;5.63;64.74
78483;BME280;67772;50.158;8.658;2023-04-03T01:55:13;101546.78;;;5.66;64.37
78483;BME280;67772;50.158;8.658;2023-04-03T01:57:38;101544.13;;;5.66;63.79
78483;BME280;67772;50.158;8.658;2023-04-03T02:00:04;101550.78;;;5.62;64.51
78483;BME280;67772;50.158;8.658;2023-04-03T02:02:30;101537.38;;;5.63;64.43
78483;BME280;67772;50.158;8.658;2023-04-03T02:04:55;101547.22;;;5.69;65.01
78483;BME280;67772;50.158;8.658;2023-04-03T02:07:20;101550.31;;;5.73;64.66
78483;BME280;67772;50.158;8.658;2023-04-03T02:09:46;101549.31;;;5.74;64.68
78483;BME280;67772;50.158;8.658;2023-04-03T02:12:11;101540.72;;;5.72;64.15
78483;BME280;67772;50.158;8.658;2023-04-03T02:14:37;101548.06;;;5.70;64.79
78483;BME280;67772;50.158;8.658;2023-04-03T02:17:02;101545.41;;;5.70;65.18
78483;BME280;67772;50.158;8.658;2023-04-03T02:19:30;101550.16;;;5.60;66.07
78483;BME280;67772;50.158;8.658;2023-04-03T02:21:56;101549.13;;;5.61;65.60
78483;BME280;67772;50.158;8.658;2023-04-03T02:24:21;101544.84;;;5.60;66.09
78483;BME280;67772;50.158;8.658;2023-04-03T02:26:46;101543.19;;;5.59;66.43
78483;BME280;67772;50.158;8.658;2023-04-03T02:29:12;101539.72;;;5.58;66.68
78483;BME280;67772;50.158;8.658;2023-04-03T02:31:37;101543.75;;;5.69;65.99
78483;BME280;67772;50.158;8.658;2023-04-03T02:34:02;101547.41;;;5.68;66.13
78483;BME280;67772;50.158;8.658;2023-04-03T02:36:27;101541.63;;;5.64;66.30
78483;BME280;67772;50.158;8.658;2023-04-03T02:38:53;101544.56;;;5.55;66.41
78483;BME280;67772;50.158;8.658;2023-04-03T02:41:18;101539.72;;;5.58;65.81
78483;BME280;67772;50.158;8.658;2023-04-03T02:43:43;101542.22;;;5.60;66.70
78483;BME280;67772;50.158;8.658;2023-04-03T02:46:08;101545.13;;;5.65;65.78
78483;BME280;67772;50.158;8.658;2023-04-03T02:48:34;101556.44;;;5.59;65.66
78483;BME280;67772;50.158;8.658;2023-04-03T02:51:00;101548.94;;;5.48;65.54
78483;BME280;67772;50.158;8.658;2023-04-03T02:53:26;101544.56;;;5.69;65.38
78483;BME280;67772;50.158;8.658;2023-04-03T02:55:51;101554.41;;;5.61;65.83
78483;BME280;67772;50.158;8.658;2023-04-03T02:58:16;101551.88;;;5.53;65.48
78483;BME280;67772;50.158;8.658;2023-04-03T03:00:42;101543.28;;;5.51;65.67
78483;BME280;67772;50.158;8.658;2023-04-03T03:03:07;101546.66;;;5.45;66.02
78483;BME280;67772;50.158;8.658;2023-04-03T03:05:33;101541.19;;;5.46;65.96
78483;BME280;67772;50.158;8.658;2023-04-03T03:07:59;101538.25;;;5.41;65.67
78483;BME280;67772;50.158;8.658;2023-04-03T03:10:24;101539.44;;;5.38;65.70
78483;BME280;67772;50.158;8.658;2023-04-03T03:12:50;101544.94;;;5.52;63.89
78483;BME280;67772;50.158;8.658;2023-04-03T03:15:16;101553.50;;;5.39;64.41
78483;BME280;67772;50.158;8.658;2023-04-03T03:17:42;101545.38;;;5.40;64.11
78483;BME280;67772;50.158;8.658;2023-04-03T03:20:08;101546.66;;;5.45;64.13
78483;BME280;67772;50.158;8.658;2023-04-03T03:22:34;101548.50;;;5.44;63.12
78483;BME280;67772;50.158;8.658;2023-04-03T03:25:00;101542.00;;;5.47;62.53
78483;BME280;67772;50.158;8.658;2023-04-03T03:27:26;101546.72;;;5.36;61.68
78483;BME280;67772;50.158;8.658;2023-04-03T03:29:51;101546.47;;;5.31;61.03
78483;BME280;67772;50.158;8.658;2023-04-03T03:32:17;101538.91;;;5.28;60.86
78483;BME280;67772;50.158;8.658;2023-04-03T03:34:42;101553.50;;;5.24;60.06
78483;BME280;67772;50.158;8.658;2023-04-03T03:37:08;101551.94;;;5.30;59.52
78483;BME280;67772;50.158;8.658;2023-04-03T03:39:33;101549.47;;;5.28;58.95
78483;BME280;67772;50.158;8.658;2023-04-03T03:41:58;101550.84;;;5.24;58.56
78483;BME280;67772;50.158;8.658;2023-04-03T03:44:23;101553.75;;;5.15;59.00
78483;BME280;67772;50.158;8.658;2023-04-03T03:46:49;101553.56;;;5.16;58.18
78483;BME280;67772;50.158;8.658;2023-04-03T03:49:15;101563.91;;;5.03;59.06
78483;BME280;67772;50.158;8.658;2023-04-03T03:51:40;101559.16;;;4.99;60.37
78483;BME280;67772;50.158;8.658;2023-04-03T03:54:05;101556.16;;;5.02;59.93
78483;BME280;67772;50.158;8.658;2023-04-03T03:56:31;101563.88;;;4.89;61.27
78483;BME280;67772;50.158;8.658;2023-04-03T03:58:57;101560.47;;;4.80;62.45
78483;BME280;67772;50.158;8.658;2023-04-03T04:01:23;101563.75;;;4.82;62.29
78483;BME280;67772;50.158;8.658;2023-04-03T04:03:49;101569.03;;;4.82;62.18
78483;BME280;67772;50.158;8.658;2023-04-03T04:06:14;101565.03;;;4.86;61.47
78483;BME280;67772;50.158;8.658;2023-04-03T04:08:40;101574.31;;;4.82;61.54
78483;BME280;67772;50.158;8.658;2023-04-03T04:11:06;101573.72;;;4.72;61.60
78483;BME280;67772;50.158;8.658;2023-04-03T04:13:31;101579.16;;;4.79;61.90
78483;BME280;67772;50.158;8.658;2023-04-03T04:15:56;101575.09;;;4.68;62.32
78483;BME280;67772;50.158;8.658;2023-04-03T04:18:22;101571.63;;;4.68;62.42
78483;BME280;67772;50.158;8.658;2023-04-03T04:20:47;101570.22;;;4.57;62.48
78483;BME280;67772;50.158;8.658;2023-04-03T04:23:13;101565.84;;;4.64;61.34
78483;BME280;67772;50.158;8.658;2023-04-03T04:25:38;101565.75;;;4.58;61.29
78483;BME280;67772;50.158;8.658;2023-04-03T04:28:03;101569.16;;;4.43;62.06
78483;BME280;67772;50.158;8.658;2023-04-03T04:30:29;101567.03;;;4.39;62.45
78483;BME280;67772;50.158;8.658;2023-04-03T04:32:54;101568.22;;;4.36;62.15
78483;BME280;67772;50.158;8.658;2023-04-03T04:35:20;101573.34;;;4.30;63.09
78483;BME280;67772;50.158;8.658;2023-04-03T04:37:45;101576.00;;;4.30;63.29
78483;BME280;67772;50.158;8.658;2023-04-03T04:40:11;101575.06;;;4.23;63.17
78483;BME280;67772;50.158;8.658;2023-04-03T04:42:36;101576.69;;;4.24;62.49
78483;BME280;67772;50.158;8.658;2023-04-03T04:45:01;101575.06;;;4.23;63.00
78483;BME280;67772;50.158;8.658;2023-04-03T04:47:28;101578.38;;;4.17;63.51
78483;BME280;67772;50.158;8.658;2023-04-03T04:49:53;101580.00;;;4.18;62.98
78483;BME280;67772;50.158;8.658;2023-04-03T04:52:18;101577.03;;;4.21;63.34
78483;BME280;67772;50.158;8.658;2023-04-03T04:54:44;101580.84;;;4.18;63.12
78483;BME280;67772;50.158;8.658;2023-04-03T04:57:10;101583.81;;;4.15;63.09
78483;BME280;67772;50.158;8.658;2023-04-03T04:59:36;101584.00;;;4.14;63.20
78483;BME280;67772;50.158;8.658;2023-04-03T05:02:01;101586.66;;;4.06;63.38
78483;BME280;67772;50.158;8.658;2023-04-03T05:04:26;101589.47;;;4.04;63.38
78483;BME280;67772;50.158;8.658;2023-04-03T05:06:52;101581.53;;;4.12;63.74
78483;BME280;67772;50.158;8.658;2023-04-03T05:09:17;101582.25;;;4.29;63.07
78483;BME280;67772;50.158;8.658;2023-04-03T05:11:45;101588.25;;;4.23;63.23
78483;BME280;67772;50.158;8.658;2023-04-03T05:14:10;101597.84;;;4.16;64.23
78483;BME280;67772;50.158;8.658;2023-04-03T05:16:35;101596.91;;;4.09;63.46
78483;BME280;67772;50.158;8.658;2023-04-03T05:19:01;101608.25;;;4.09;63.74
78483;BME280;67772;50.158;8.658;2023-04-03T05:21:26;101601.97;;;4.18;63.13
78483;BME280;67772;50.158;8.658;2023-04-03T05:23:54;101609.75;;;4.12;63.18
78483;BME280;67772;50.158;8.658;2023-04-03T05:26:19;101609.78;;;4.04;63.77
78483;BME280;67772;50.158;8.658;2023-04-03T05:28:45;101621.31;;;4.11;63.76
78483;BME280;67772;50.158;8.658;2023-04-03T05:31:11;101618.34;;;4.06;63.80
78483;BME280;67772;50.158;8.658;2023-04-03T05:33:37;101624.28;;;4.08;63.76
78483;BME280;67772;50.158;8.658;2023-04-03T05:36:04;101620.97;;;4.14;63.13
78483;BME280;67772;50.158;8.658;2023-04-03T05:38:29;101625.56;;;4.20;62.80
78483;BME280;67772;50.158;8.658;2023-04-03T05:40:55;101622.72;;;4.21;62.87
78483;BME280;67772;50.158;8.658;2023-04-03T05:43:20;101623.34;;;4.31;62.79
78483;BME280;67772;50.158;8.658;2023-04-03T05:45:47;101628.84;;;4.22;62.63
78483;BME280;67772;50.158;8.658;2023-04-03T05:48:13;101630.63;;;4.29;62.35
78483;BME280;67772;50.158;8.658;2023-04-03T05:50:38;101631.09;;;4.33;61.71
78483;BME280;67772;50.158;8.658;2023-04-03T05:53:07;101631.06;;;4.41;61.92
78483;BME280;67772;50.158;8.658;2023-04-03T05:55:35;101643.25;;;4.50;61.49
78483;BME280;67772;50.158;8.658;2023-04-03T05:58:00;101651.25;;;4.65;61.30
78483;BME280;67772;50.158;8.658;2023-04-03T06:00:26;101631.78;;;4.66;61.04
78483;BME280;67772;50.158;8.658;2023-04-03T06:02:52;101640.41;;;4.82;61.19
78483;BME280;67772;50.158;8.658;2023-04-03T06:05:17;101653.00;;;5.03;59.86
78483;BME280;67772;50.158;8.658;2023-04-03T06:07:43;101640.84;;;5.16;58.91
78483;BME280;67772;50.158;8.658;2023-04-03T06:10:11;101646.47;;;5.36;57.64
78483;BME280;67772;50.158;8.658;2023-04-03T06:12:37;101653.78;;;5.49;57.07
78483;BME280;67772;50.158;8.658;2023-04-03T06:15:02;101646.97;;;5.69;57.15
78483;BME280;67772;50.158;8.658;2023-04-03T06:17:28;101657.72;;;5.90;56.09
78483;BME280;67772;50.158;8.658;2023-04-03T06:19:54;101671.16;;;6.03;55.64
78483;BME280;67772;50.158;8.658;2023-04-03T06:22:20;101658.94;;;6.16;55.59
78483;BME280;67772;50.158;8.658;2023-04-03T06:24:46;101662.66;;;6.22;55.17
78483;BME280;67772;50.158;8.658;2023-04-03T06:27:12;101656.78;;;6.56;54.20
78483;BME280;67772;50.158;8.658;2023-04-03T06:29:37;101669.03;;;6.78;53.14
78483;BME280;67772;50.158;8.658;2023-04-03T06:32:02;101663.59;;;6.79;53.17
78483;BME280;67772;50.158;8.658;2023-04-03T06:34:28;101674.53;;;7.12;51.44
78483;BME280;67772;50.158;8.658;2023-04-03T06:36:53;101672.38;;;7.22;52.12
78483;BME280;67772;50.158;8.658;2023-04-03T06:39:20;101673.72;;;7.60;50.93
78483;BME280;67772;50.158;8.658;2023-04-03T06:41:47;101674.66;;;7.74;49.85
78483;BME280;67772;50.158;8.658;2023-04-03T06:44:12;101686.63;;;7.91;49.46
78483;BME280;67772;50.158;8.658;2023-04-03T06:46:40;101680.28;;;8.20;49.48
78483;BME280;67772;50.158;8.658;2023-04-03T06:49:06;101675.56;;;8.49;48.59
78483;BME280;67772;50.158;8.658;2023-04-03T06:51:33;101695.19;;;8.48;48.20
78483;BME280;67772;50.158;8.658;2023-04-03T06:53:59;101688.91;;;8.62;47.79
78483;BME280;67772;50.158;8.658;2023-04-03T06:56:25;101699.22;;;8.91;47.37
78483;BME280;67772;50.158;8.658;2023-04-03T06:58:52;101685.19;;;9.24;46.21
78483;BME280;67772;50.158;8.658;2023-04-03T07:01:20;101698.31;;;9.25;46.11
78483;BME280;67772;50.158;8.658;2023-04-03T07:03:47;101701.00;;;9.71;45.07
78483;BME280;67772;50.158;8.658;2023-04-03T07:06:14;101707.34;;;9.96;43.66
78483;BME280;67772;50.158;8.658;2023-04-03T07:08:39;101703.19;;;10.39;42.44
78483;BME280;67772;50.158;8.658;2023-04-03T07:11:05;101700.19;;;10.67;42.05
78483;BME280;67772;50.158;8.658;2023-04-03T07:13:31;101707.63;;;11.34;41.29
78483;BME280;67772;50.158;8.658;2023-04-03T07:15:57;101708.34;;;11.23;40.38
78483;BME280;67772;50.158;8.658;2023-04-03T07:18:23;101700.94;;;12.05;39.46
78483;BME280;67772;50.158;8.658;2023-04-03T07:20:49;101708.44;;;12.51;38.67
78483;BME280;67772;50.158;8.658;2023-04-03T07:23:15;101714.09;;;12.79;37.66
78483;BME280;67772;50.158;8.658;2023-04-03T07:25:45;101721.28;;;12.79;37.57
78483;BME280;67772;50.158;8.658;2023-04-03T07:28:11;101721.78;;;14.46;34.30
78483;BME280;67772;50.158;8.658;2023-04-03T07:30:47;101719.84;;;14.81;33.19
78483;BME280;67772;50.158;8.658;2023-04-03T07:33:15;101716.34;;;17.28;29.43
78483;BME280;67772;50.158;8.658;2023-04-03T07:35:41;101721.41;;;18.56;27.20
78483;BME280;67772;50.158;8.658;2023-04-03T07:38:06;101720.09;;;20.75;23.88
78483;BME280;67772;50.158;8.658;2023-04-03T07:40:32;101725.63;;;20.50;23.57
78483;BME280;67772;50.158;8.658;2023-04-03T07:42:58;101728.50;;;21.99;22.10
78483;BME280;67772;50.158;8.658;2023-04-03T07:45:24;101731.13;;;21.76;22.19
78483;BME280;67772;50.158;8.658;2023-04-03T07:47:50;101723.19;;;23.77;19.62
78483;BME280;67772;50.158;8.658;2023-04-03T07:50:16;101720.06;;;24.02;19.21
78483;BME280;67772;50.158;8.658;2023-04-03T07:52:41;101720.47;;;25.26;17.80
78483;BME280;67772;50.158;8.658;2023-04-03T07:55:07;101732.00;;;23.55;19.03
78483;BME280;67772;50.158;8.658;2023-04-03T07:57:32;101730.97;;;24.02;18.80
78483;BME280;67772;50.158;8.658;2023-04-03T07:59:57;101726.13;;;25.08;17.62
78483;BME280;67772;50.158;8.658;2023-04-03T08:02:23;101730.09;;;25.82;16.54
78483;BME280;67772;50.158;8.658;2023-04-03T08:04:48;101729.97;;;26.57;16.09
78483;BME280;67772;50.158;8.658;2023-04-03T08:07:13;101739.19;;;24.29;17.40
78483;BME280;67772;50.158;8.658;2023-04-03T08:09:39;101747.09;;;23.29;19.07
78483;BME280;67772;50.158;8.658;2023-04-03T08:12:04;101732.50;;;25.39;16.79
78483;BME280;67772;50.158;8.658;2023-04-03T08:14:31;101736.66;;;24.60;16.77
78483;BME280;67772;50.158;8.658;2023-04-03T08:16:59;101743.59;;;24.12;17.48
78483;BME280;67772;50.158;8.658;2023-04-03T08:19:25;101745.94;;;21.93;19.49
78483;BME280;67772;50.158;8.658;2023-04-03T08:21:51;101751.81;;;21.33;20.15
78483;BME280;67772;50.158;8.658;2023-04-03T08:24:16;101741.28;;;20.68;22.00
78483;BME280;67772;50.158;8.658;2023-04-03T08:26:41;101739.25;;;20.93;21.17
78483;BME280;67772;50.158;8.658;2023-04-03T08:29:07;101735.44;;;20.36;22.20
78483;BME280;67772;50.158;8.658;2023-04-03T08:31:32;101745.31;;;21.68;20.48
78483;BME280;67772;50.158;8.658;2023-04-03T08:33:58;101728.53;;;22.94;19.46
78483;BME280;67772;50.158;8.658;2023-04-03T08:36:28;101731.38;;;22.84;18.70
78483;BME280;67772;50.158;8.658;2023-04-03T08:38:54;101725.44;;;19.40;22.45
78483;BME280;67772;50.158;8.658;2023-04-03T08:41:33;101735.13;;;19.21;23.67
78483;BME280;67772;50.158;8.658;2023-04-03T08:47:11;101724.91;;;20.88;21.42
78483;BME280;67772;50.158;8.658;2023-04-03T08:49:50;101724.63;;;19.90;23.50
78483;BME280;67772;50.158;8.658;2023-04-03T08:52:19;101718.88;;;20.37;22.09
78483;BME280;67772;50.158;8.658;2023-04-03T08:54:54;101716.88;;;21.94;20.79
78483;BME280;67772;50.158;8.658;2023-04-03T08:57:40;101720.84;;;22.77;19.65
78483;BME280;67772;50.158;8.658;2023-04-03T09:02:47;101717.47;;;25.14;16.72
78483;BME280;67772;50.158;8.658;2023-04-03T09:05:19;101715.16;;;24.72;16.86
78483;BME280;67772;50.158;8.658;2023-04-03T09:10:23;101717.66;;;27.87;14.82
78483;BME280;67772;50.158;8.658;2023-04-03T09:15:32;101710.50;;;30.18;12.55
78483;BME280;67772;50.158;8.658;2023-04-03T09:18:20;101714.38;;;29.60;12.56
78483;BME280;67772;50.158;8.658;2023-04-03T09:25:51;101726.09;;;29.08;12.81
78483;BME280;67772;50.158;8.658;2023-04-03T09:28:18;101714.47;;;29.31;12.73
78483;BME280;67772;50.158;8.658;2023-04-03T09:30:43;101711.25;;;29.09;13.21
78483;BME280;67772;50.158;8.658;2023-04-03T09:33:09;101714.53;;;30.45;12.51
78483;BME280;67772;50.158;8.658;2023-04-03T09:35:37;101706.00;;;30.98;12.33
78483;BME280;67772;50.158;8.658;2023-04-03T09:40:42;101712.84;;;29.72;12.08
78483;BME280;67772;50.158;8.658;2023-04-03T09:45:42;101706.03;;;28.37;12.65
78483;BME280;67772;50.158;8.658;2023-04-03T09:50:55;101716.41;;;27.76;13.66
78483;BME280;67772;50.158;8.658;2023-04-03T09:53:35;101709.78;;;29.11;12.14
78483;BME280;67772;50.158;8.658;2023-04-03T09:56:18;101707.28;;;28.77;12.89
78483;BME280;67772;50.158;8.658;2023-04-03T09:58:51;101705.97;;;29.78;12.42
78483;BME280;67772;50.158;8.658;2023-04-03T10:01:31;101709.75;;;27.77;13.27
78483;BME280;67772;50.158;8.658;2023-04-03T10:04:07;101705.06;;;28.91;12.62
78483;BME280;67772;50.158;8.658;2023-04-03T10:06:35;101705.00;;;28.79;11.14
78483;BME280;67772;50.158;8.658;2023-04-03T10:09:04;101698.31;;;29.83;11.45
78483;BME280;67772;50.158;8.658;2023-04-03T10:11:30;101695.84;;;30.50;10.99
78483;BME280;67772;50.158;8.658;2023-04-03T10:13:58;101688.41;;;32.01;10.00
78483;BME280;67772;50.158;8.658;2023-04-03T10:17:05;101695.31;;;31.36;10.26
78483;BME280;67772;50.158;8.658;2023-04-03T10:19:47;101693.16;;;32.01;10.31
78483;BME280;67772;50.158;8.658;2023-04-03T10:22:21;101692.84;;;32.37;9.51
78483;BME280;67772;50.158;8.658;2023-04-03T10:25:09;101690.00;;;30.64;10.09
78483;BME280;67772;50.158;8.658;2023-04-03T10:27:48;101679.56;;;33.50;9.11
78483;BME280;67772;50.158;8.658;2023-04-03T10:35:55;101683.41;;;33.46;9.16
78483;BME280;67772;50.158;8.658;2023-04-03T10:38:33;101676.72;;;35.56;7.54
78483;BME280;67772;50.158;8.658;2023-04-03T10:41:23;101681.50;;;34.14;7.81
78483;BME280;67772;50.158;8.658;2023-04-03T10:44:04;101698.97;;;31.13;10.63
78483;BME280;67772;50.158;8.658;2023-04-03T10:46:43;101684.06;;;33.58;8.66
78483;BME280;67772;50.158;8.658;2023-04-03T10:49:25;101674.72;;;35.20;7.34
78483;BME280;67772;50.158;8.658;2023-04-03T10:52:02;101684.72;;;35.28;7.66
78483;BME280;67772;50.158;8.658;2023-04-03T10:57:17;101677.09;;;32.22;8.59
78483;BME280;67772;50.158;8.658;2023-04-03T10:59:53;101667.56;;;33.24;8.53
78483;BME280;67772;50.158;8.658;2023-04-03T11:02:24;101678.00;;;32.95;8.71
78483;BME280;67772;50.158;8.658;2023-04-03T11:04:55;101671.66;;;31.79;9.14
78483;BME280;67772;50.158;8.658;2023-04-03T11:07:26;101658.50;;;32.69;8.51
78483;BME280;67772;50.158;8.658;2023-04-03T11:10:00;101660.97;;;32.93;8.76
78483;BME280;67772;50.158;8.658;2023-04-03T11:12:58;101653.81;;;33.08;8.67
78483;BME280;67772;50.158;8.658;2023-04-03T11:15:29;101651.59;;;33.36;8.01
78483;BME280;67772;50.158;8.658;2023-04-03T11:18:02;101663.13;;;30.13;9.60
78483;BME280;67772;50.158;8.658;2023-04-03T11:20:31;101653.97;;;32.11;9.16
78483;BME280;67772;50.158;8.658;2023-04-03T11:23:03;101642.06;;;32.76;8.02
78483;BME280;67772;50.158;8.658;2023-04-03T11:25:32;101637.69;;;33.33;8.22
78483;BME280;67772;50.158;8.658;2023-04-03T11:28:11;101645.75;;;32.65;8.19
78483;BME280;67772;50.158;8.658;2023-04-03T11:30:47;101638.91;;;33.13;7.97
78483;BME280;67772;50.158;8.658;2023-04-03T11:38:47;101634.13;;;33.74;7.49
78483;BME280;67772;50.158;8.658;2023-04-03T11:41:14;101642.78;;;32.23;8.65
78483;BME280;67772;50.158;8.658;2023-04-03T11:43:42;101629.28;;;34.42;7.13
78483;BME280;67772;50.158;8.658;2023-04-03T11:46:20;101618.72;;;34.48;7.49
78483;BME280;67772;50.158;8.658;2023-04-03T11:48:48;101621.09;;;34.23;7.02
78483;BME280;67772;50.158;8.658;2023-04-03T11:53:43;101641.94;;;31.01;9.60
78483;BME280;67772;50.158;8.658;2023-04-03T12:04:13;101606.59;;;33.17;7.39
78483;BME280;67772;50.158;8.658;2023-04-03T12:09:23;101610.47;;;31.77;8.54
78483;BME280;67772;50.158;8.658;2023-04-03T12:11:51;101612.28;;;31.85;8.60
78483;BME280;67772;50.158;8.658;2023-04-03T12:14:17;101606.19;;;31.05;8.35
78483;BME280;67772;50.158;8.658;2023-04-03T12:16:45;101600.03;;;31.11;9.50
78483;BME280;67772;50.158;8.658;2023-04-03T12:26:36;101612.59;;;27.32;11.59
78483;BME280;67772;50.158;8.658;2023-04-03T12:29:18;101620.53;;;25.03;12.71
78483;BME280;67772;50.158;8.658;2023-04-03T12:43:14;101620.75;;;18.39;20.69
78483;BME280;67772;50.158;8.658;2023-04-03T12:48:26;101603.63;;;17.66;20.48
78483;BME280;67772;50.158;8.658;2023-04-03T12:50:52;101599.03;;;16.99;22.47
78483;BME280;67772;50.158;8.658;2023-04-03T12:53:23;101600.47;;;16.79;20.97
78483;BME280;67772;50.158;8.658;2023-04-03T12:55:57;101579.91;;;16.04;23.75
78483;BME280;67772;50.158;8.658;2023-04-03T12:58:28;101578.38;;;15.69;24.80
78483;BME280;67772;50.158;8.658;2023-04-03T13:03:29;101569.38;;;14.64;24.23
78483;BME280;67772;50.158;8.658;2023-04-03T13:06:01;101578.25;;;14.65;25.55
78483;BME280;67772;50.158;8.658;2023-04-03T13:08:28;101575.84;;;14.52;25.72
78483;BME280;67772;50.158;8.658;2023-04-03T13:11:04;101580.59;;;14.61;25.50
78483;BME280;67772;50.158;8.658;2023-04-03T13:13:32;101569.19;;;14.14;25.78
78483;BME280;67772;50.158;8.658;2023-04-03T13:15:57;101560.56;;;14.12;25.93
78483;BME280;67772;50.158;8.658;2023-04-03T13:18:31;101560.88;;;13.53;25.84
78483;BME280;67772;50.158;8.658;2023-04-03T13:21:13;101568.53;;;13.84;25.55
78483;BME280;67772;50.158;8.658;2023-04-03T13:23:43;101572.88;;;13.74;26.54
78483;BME280;67772;50.158;8.658;2023-04-03T13:26:10;101577.31;;;13.68;26.89
78483;BME280;67772;50.158;8.658;2023-04-03T13:28:37;101579.41;;;13.78;28.08
78483;BME280;67772;50.158;8.658;2023-04-03T13:33:43;101569.13;;;13.86;26.29
78483;BME280;67772;50.158;8.658;2023-04-03T13:36:24;101570.44;;;13.61;27.14
78483;BME280;67772;50.158;8.658;2023-04-03T13:41:29;101560.63;;;13.43;27.32
78483;BME280;67772;50.158;8.658;2023-04-03T13:43:55;101551.31;;;13.34;27.90
78483;BME280;67772;50.158;8.658;2023-04-03T13:46:26;101563.28;;;13.08;27.88
78483;BME280;67772;50.158;8.658;2023-04-03T13:48:54;101554.34;;;13.49;28.51
78483;BME280;67772;50.158;8.658;2023-04-03T13:51:28;101552.25;;;13.28;28.51
78483;BME280;67772;50.158;8.658;2023-04-03T13:53:59;101551.75;;;13.08;28.41
78483;BME280;67772;50.158;8.658;2023-04-03T14:01:48;101551.13;;;12.94;28.48
78483;BME280;67772;50.158;8.658;2023-04-03T14:04:21;101549.47;;;12.82;28.11
78483;BME280;67772;50.158;8.658;2023-04-03T14:06:47;101548.59;;;12.99;27.67
78483;BME280;67772;50.158;8.658;2023-04-03T14:09:13;101544.09;;;12.70;27.42
78483;BME280;67772;50.158;8.658;2023-04-03T14:11:40;101542.41;;;12.58;27.67
78483;BME280;67772;50.158;8.658;2023-04-03T14:14:18;101535.44;;;12.57;27.78
78483;BME280;67772;50.158;8.658;2023-04-03T14:16:48;101551.25;;;12.47;28.09
78483;BME280;67772;50.158;8.658;2023-04-03T14:19:21;101533.69;;;12.51;28.02
78483;BME280;67772;50.158;8.658;2023-04-03T14:21:47;101537.53;;;12.55;27.75
78483;BME280;67772;50.158;8.658;2023-04-03T14:24:12;101542.38;;;12.46;27.00
78483;BME280;67772;50.158;8.658;2023-04-03T14:26:38;101526.69;;;12.50;28.48
78483;BME280;67772;50.158;8.658;2023-04-03T14:29:03;101532.59;;;12.40;28.55
78483;BME280;67772;50.158;8.658;2023-04-03T14:31:29;101531.88;;;12.63;28.25
78483;BME280;67772;50.158;8.658;2023-04-03T14:33:54;101527.97;;;12.47;28.22
78483;BME280;67772;50.158;8.658;2023-04-03T14:36:23;101531.13;;;12.26;29.45
78483;BME280;67772;50.158;8.658;2023-04-03T14:38:51;101515.72;;;12.39;28.70
78483;BME280;67772;50.158;8.658;2023-04-03T14:41:19;101522.78;;;12.34;28.93
78483;BME280;67772;50.158;8.658;2023-04-03T14:43:46;101526.38;;;12.28;29.23